createdAt,value
2023-03-23T15:57:53.860Z,34.48
2023-03-23T16:00:26.094Z,34.29
2023-03-23T16:02:57.975Z,33.95
2023-03-23T16:05:27.435Z,34.92
2023-03-23T16:07:54.945Z,34.75
2023-03-23T16:10:25.627Z,33.11
2023-03-23T16:12:53.085Z,34.26
2023-03-23T16:15:21.073Z,33.65
2023-03-23T16:17:49.695Z,33.82
2023-03-23T16:20:19.849Z,33.24
2023-03-23T16:22:50.225Z,33.31
2023-03-23T16:25:20.187Z,33.42
2023-03-23T16:27:49.330Z,32.63
2023-03-23T16:30:21.867Z,32.88
2023-03-23T16:32:49.565Z,32.86
2023-03-23T16:35:19.784Z,39.71
2023-03-23T16:37:52.142Z,32.87
2023-03-23T16:40:35.935Z,32.35
2023-03-23T16:43:08.512Z,32.06
2023-03-23T16:45:37.290Z,32.68
2023-03-23T16:48:05.360Z,32.22
2023-03-23T16:50:33.661Z,32.78
2023-03-23T16:53:02.650Z,32.73
2023-03-23T16:55:31.279Z,33.35
2023-03-23T16:58:13.136Z,32.76
2023-03-23T17:00:45.887Z,33.03
2023-03-23T17:03:13.321Z,33.62
2023-03-23T17:05:40.725Z,33.22
2023-03-23T17:08:09.693Z,33.32
2023-03-23T17:10:40.226Z,32.21
2023-03-23T17:13:09.589Z,32.61
2023-03-23T17:15:37.988Z,32.32
2023-03-23T17:18:06.540Z,32.10
2023-03-23T17:20:35.406Z,32.13
2023-03-23T17:23:10.200Z,32.78
2023-03-23T17:25:38.164Z,32.23
2023-03-23T17:28:07.618Z,32.36
2023-03-23T17:30:35.989Z,33.61
2023-03-23T17:33:03.234Z,33.05
2023-03-23T17:35:31.169Z,32.56
2023-03-23T17:37:58.782Z,33.31
2023-03-23T17:40:29.725Z,33.03
2023-03-23T17:42:57.086Z,32.81
2023-03-23T17:45:26.182Z,32.91
2023-03-23T17:47:53.514Z,32.89
2023-03-23T17:50:21.274Z,32.64
2023-03-23T17:52:48.428Z,32.84
2023-03-23T17:55:18.721Z,34.70
2023-03-23T17:57:47.530Z,33.36
2023-03-23T18:00:17.068Z,32.68
2023-03-23T18:02:45.861Z,33.05
2023-03-23T18:05:13.289Z,33.52
2023-03-23T18:07:40.460Z,33.57
2023-03-23T18:10:08.656Z,33.64
2023-03-23T18:12:35.834Z,33.73
2023-03-23T18:15:06.873Z,34.56
2023-03-23T18:17:34.120Z,35.40
2023-03-23T18:20:03.418Z,35.19
2023-03-23T18:22:33.615Z,34.67
2023-03-23T18:25:00.799Z,35.08
2023-03-23T18:27:27.948Z,34.49
2023-03-23T18:29:55.440Z,34.98
2023-03-23T18:32:24.655Z,34.45
2023-03-23T18:34:52.202Z,35.13
2023-03-23T18:37:20.330Z,34.37
2023-03-23T18:39:48.883Z,34.96
2023-03-23T18:42:16.331Z,34.88
2023-03-23T18:44:45.095Z,35.45
2023-03-23T18:47:12.789Z,35.57
2023-03-23T18:49:41.688Z,35.00
2023-03-23T18:52:10.299Z,35.17
2023-03-23T18:54:38.285Z,34.92
2023-03-23T18:57:07.130Z,33.91
2023-03-23T18:59:34.906Z,33.83
2023-03-23T19:02:02.320Z,34.19
2023-03-23T19:04:30.062Z,35.19
2023-03-23T19:06:59.076Z,35.03
2023-03-23T19:09:26.176Z,35.17
2023-03-23T19:11:53.561Z,35.16
2023-03-23T19:14:46.798Z,34.89
2023-03-23T19:17:14.745Z,35.29
2023-03-23T19:19:43.181Z,35.20
2023-03-23T19:22:12.549Z,34.91
2023-03-23T19:24:39.715Z,35.41
2023-03-23T19:27:08.302Z,35.75
2023-03-23T19:29:36.004Z,35.74
2023-03-23T19:32:03.347Z,35.19
2023-03-23T19:34:30.963Z,34.48
2023-03-23T19:37:05.278Z,34.85
2023-03-23T19:39:36.330Z,35.52
2023-03-23T19:42:04.633Z,34.81
2023-03-23T19:44:32.101Z,35.18
2023-03-23T19:47:00.394Z,34.49
2023-03-23T19:49:27.952Z,34.46
2023-03-23T19:52:09.079Z,34.66
2023-03-23T19:54:39.946Z,34.69
2023-03-23T19:57:09.370Z,37.41
2023-03-23T19:59:38.297Z,39.05
2023-03-23T20:02:06.905Z,36.04
2023-03-23T20:04:35.438Z,35.01
2023-03-23T20:07:04.397Z,33.73
2023-03-23T20:09:33.294Z,33.10
2023-03-23T20:12:01.939Z,32.91
2023-03-23T20:14:29.388Z,32.29
2023-03-23T20:16:56.845Z,30.25
2023-03-23T20:19:24.189Z,31.06
2023-03-23T20:21:52.342Z,30.76
2023-03-23T20:24:20.215Z,31.96
2023-03-23T20:26:47.794Z,32.92
2023-03-23T20:29:17.103Z,32.95
2023-03-23T20:31:44.924Z,34.14
2023-03-23T20:34:15.480Z,34.55
2023-03-23T20:36:47.684Z,33.99
2023-03-23T20:39:18.085Z,33.88
2023-03-23T20:41:46.040Z,33.77
2023-03-23T20:44:14.386Z,34.57
2023-03-23T20:46:43.906Z,35.25
2023-03-23T20:49:12.303Z,34.22
2023-03-23T20:51:39.663Z,34.23
2023-03-23T20:54:06.903Z,35.21
2023-03-23T20:56:34.127Z,34.79
2023-03-23T20:59:02.426Z,35.25
2023-03-23T21:01:30.424Z,35.23
2023-03-23T21:04:00.245Z,35.09
2023-03-23T21:06:27.822Z,35.36
2023-03-23T21:08:56.305Z,35.66
2023-03-23T21:11:33.451Z,34.77
2023-03-23T21:14:03.755Z,34.86
2023-03-23T21:16:31.159Z,34.68
2023-03-23T21:19:05.864Z,33.83
2023-03-23T21:21:35.342Z,34.38
2023-03-23T21:24:03.570Z,37.25
2023-03-23T21:26:30.962Z,36.17
2023-03-23T21:29:00.489Z,36.53
2023-03-23T21:31:30.773Z,36.01
2023-03-23T21:33:58.961Z,35.81
2023-03-23T21:36:29.716Z,36.80
2023-03-23T21:38:58.695Z,36.53
2023-03-23T21:41:26.772Z,36.95
2023-03-23T21:43:53.957Z,37.86
2023-03-23T21:46:23.258Z,37.75
2023-03-23T21:48:51.937Z,37.74
2023-03-23T21:51:23.198Z,37.77
2023-03-23T21:53:53.628Z,37.14
2023-03-23T21:56:23.002Z,37.14
2023-03-23T21:58:50.607Z,37.41
2023-03-23T22:01:18.344Z,37.04
2023-03-23T22:03:54.057Z,36.97
2023-03-23T22:06:24.705Z,36.45
2023-03-23T22:08:55.286Z,36.60
2023-03-23T22:11:26.757Z,38.22
2023-03-23T22:13:56.721Z,37.73
2023-03-23T22:16:24.984Z,37.29
2023-03-23T22:18:53.510Z,37.16
2023-03-23T22:21:21.745Z,37.18
2023-03-23T22:23:49.914Z,37.12
2023-03-23T22:26:19.593Z,36.12
2023-03-23T22:28:48.051Z,36.19
2023-03-23T22:31:17.713Z,36.63
2023-03-23T22:33:45.926Z,36.79
2023-03-23T22:36:14.459Z,36.61
2023-03-23T22:38:44.485Z,37.44
2023-03-23T22:41:17.719Z,37.88
2023-03-23T22:43:47.681Z,38.66
2023-03-23T22:46:15.791Z,38.22
2023-03-23T22:48:43.652Z,39.13
2023-03-23T22:51:12.687Z,38.40
2023-03-23T22:53:39.968Z,38.52
2023-03-23T22:56:08.727Z,38.81
2023-03-23T22:58:36.394Z,38.85
2023-03-23T23:01:08.838Z,38.96
2023-03-23T23:03:36.123Z,38.97
2023-03-23T23:06:03.500Z,39.16
2023-03-23T23:08:31.746Z,39.00
2023-03-23T23:11:02.290Z,38.39
2023-03-23T23:13:31.866Z,38.71
2023-03-23T23:16:02.212Z,39.03
2023-03-23T23:18:31.495Z,38.95
2023-03-23T23:21:01.251Z,38.44
2023-03-23T23:23:28.794Z,38.97
2023-03-23T23:25:56.503Z,38.65
2023-03-23T23:28:24.459Z,39.42
2023-03-23T23:30:51.725Z,39.47
2023-03-23T23:33:19.979Z,40.33
2023-03-23T23:35:50.015Z,40.46
2023-03-23T23:38:17.515Z,41.09
2023-03-23T23:40:46.466Z,41.03
2023-03-23T23:43:15.777Z,41.67
2023-03-23T23:45:44.182Z,41.90
2023-03-23T23:48:11.947Z,42.58
2023-03-23T23:50:39.150Z,43.32
2023-03-23T23:53:08.265Z,43.72
2023-03-23T23:55:35.477Z,43.49
2023-03-23T23:58:02.654Z,44.07
